createdAt,value
2019-02-06T00:04:05.053Z,23.90
2019-02-06T00:09:10.644Z,19.93
2019-02-06T00:14:12.324Z,20.70
2019-02-06T00:19:14.004Z,21.40
2019-02-06T00:24:15.699Z,21.17
2019-02-06T00:29:17.439Z,19.40
2019-02-06T00:34:19.106Z,21.17
2019-02-06T00:39:20.674Z,23.23
2019-02-06T00:44:22.268Z,25.27
2019-02-06T00:49:45.659Z,24.90
2019-02-06T00:54:47.331Z,22.53
2019-02-06T00:59:49.208Z,23.50
2019-02-06T01:04:50.900Z,26.80
2019-02-06T01:09:52.574Z,24.13
2019-02-06T01:14:54.252Z,26.33
2019-02-06T01:19:55.927Z,25.10
2019-02-06T01:24:57.612Z,28.40
2019-02-06T01:29:59.186Z,24.67
2019-02-06T01:35:00.767Z,25.37
2019-02-06T01:40:03.638Z,24.13
2019-02-06T01:45:07.256Z,28.67
2019-02-06T01:50:09.998Z,24.53
2019-02-06T01:55:11.969Z,27.73
2019-02-06T02:00:18.721Z,26.30
2019-02-06T02:05:20.639Z,24.27
2019-02-06T02:10:22.412Z,27.97
2019-02-06T02:15:24.084Z,26.70
2019-02-06T02:20:26.256Z,27.93
2019-02-06T02:25:27.940Z,26.37
2019-02-06T02:30:37.182Z,25.77
2019-02-06T02:35:38.877Z,29.03
2019-02-06T02:40:40.550Z,29.10
2019-02-06T02:45:42.619Z,29.07
2019-02-06T02:50:44.177Z,26.97
2019-02-06T02:55:45.768Z,30.10
2019-02-06T03:01:19.132Z,24.90
2019-02-06T03:06:28.420Z,30.40
2019-02-06T03:11:24.477Z,26.47
2019-02-06T03:16:26.162Z,27.67
2019-02-06T03:21:27.823Z,28.40
2019-02-06T03:26:29.492Z,28.77
2019-02-06T03:31:31.194Z,32.30
2019-02-06T03:36:40.698Z,26.67
2019-02-06T03:41:36.392Z,28.77
2019-02-06T03:46:38.373Z,34.53
2019-02-06T03:51:39.944Z,28.03
2019-02-06T03:56:41.508Z,28.93
2019-02-06T04:01:43.366Z,29.30
2019-02-06T04:06:53.459Z,30.10
2019-02-06T04:11:48.390Z,31.17
2019-02-06T04:16:49.951Z,29.33
2019-02-06T04:21:51.513Z,27.80
2019-02-06T04:26:53.060Z,32.90
2019-02-06T04:31:54.748Z,31.33
2019-02-06T04:37:06.364Z,29.37
2019-02-06T04:41:59.846Z,29.70
2019-02-06T04:47:01.399Z,29.93
2019-02-06T04:52:03.188Z,31.80
2019-02-06T04:57:04.987Z,31.77
2019-02-06T05:02:06.679Z,29.23
2019-02-06T05:07:18.593Z,32.47
2019-02-06T05:12:11.840Z,31.83
2019-02-06T05:17:13.474Z,29.57
2019-02-06T05:22:15.358Z,32.17
2019-02-06T05:27:16.959Z,28.77
2019-02-06T05:32:18.647Z,27.13
2019-02-06T05:37:31.749Z,34.33
2019-02-06T05:42:24.817Z,27.93
2019-02-06T05:47:26.626Z,26.77
2019-02-06T05:52:28.432Z,31.07
2019-02-06T05:57:30.017Z,28.07
2019-02-06T06:02:31.687Z,27.43
2019-02-06T06:07:44.515Z,27.80
2019-02-06T06:12:36.952Z,25.17
2019-02-06T06:17:38.944Z,26.40
2019-02-06T06:22:40.626Z,30.77
2019-02-06T06:27:42.331Z,25.83
2019-02-06T06:32:44.016Z,26.83
2019-02-06T06:37:57.106Z,25.77
2019-02-06T06:42:49.558Z,25.93
2019-02-06T06:47:51.751Z,25.57
2019-02-06T06:52:53.534Z,23.27
2019-02-06T06:57:55.633Z,23.77
2019-02-06T07:02:57.415Z,21.10
2019-02-06T07:08:09.261Z,22.60
2019-02-06T07:13:02.672Z,19.33
2019-02-06T07:18:04.369Z,27.17
2019-02-06T07:23:06.056Z,23.30
2019-02-06T07:28:07.838Z,19.63
2019-02-06T07:33:09.615Z,20.63
2019-02-06T07:38:23.636Z,18.23
2019-02-06T07:43:15.315Z,20.53
2019-02-06T07:48:17.001Z,22.40
2019-02-06T07:53:18.723Z,20.17
2019-02-06T07:58:20.300Z,19.77
2019-02-06T08:03:21.870Z,18.73
2019-02-06T08:08:35.280Z,21.50
2019-02-06T08:13:27.150Z,19.00
2019-02-06T08:18:28.847Z,20.63
2019-02-06T08:23:30.423Z,21.20
2019-02-06T08:28:32.219Z,18.60
2019-02-06T08:33:33.921Z,20.73
2019-02-06T08:38:47.029Z,18.40
2019-02-06T08:43:39.403Z,20.33
2019-02-06T08:48:41.094Z,18.47
2019-02-06T08:53:42.693Z,18.87
2019-02-06T08:58:44.395Z,18.57
2019-02-06T09:03:46.184Z,17.50
2019-02-06T09:08:58.992Z,18.47
2019-02-06T09:13:51.352Z,21.20
2019-02-06T09:18:52.934Z,20.30
2019-02-06T09:23:54.513Z,24.37
2019-02-06T09:28:56.132Z,19.67
2019-02-06T09:33:58.013Z,20.97
2019-02-06T09:39:10.926Z,21.13
2019-02-06T09:44:03.177Z,21.70
2019-02-06T09:49:05.027Z,22.23
2019-02-06T09:54:07.170Z,22.13
2019-02-06T09:59:08.840Z,19.27
2019-02-06T10:04:10.551Z,19.67
2019-02-06T10:09:22.340Z,21.20
2019-02-06T10:14:16.241Z,20.47
2019-02-06T10:19:18.061Z,20.73
2019-02-06T10:24:19.762Z,24.13
2019-02-06T10:29:21.429Z,27.47
2019-02-06T10:34:23.241Z,22.33
2019-02-06T10:39:34.239Z,22.67
2019-02-06T10:44:28.391Z,24.67
2019-02-06T10:49:30.008Z,24.07
2019-02-06T10:54:31.685Z,24.83
2019-02-06T10:59:33.361Z,21.87
2019-02-06T11:04:35.033Z,26.97
2019-02-06T11:09:46.165Z,23.93
2019-02-06T11:14:40.312Z,21.37
2019-02-06T11:19:43.211Z,26.57
2019-02-06T11:24:44.887Z,22.00
2019-02-06T11:29:48.546Z,23.10
2019-02-06T11:34:50.078Z,21.43
2019-02-06T11:39:58.129Z,24.03
2019-02-06T11:44:55.253Z,24.60
2019-02-06T11:49:59.171Z,22.63
2019-02-06T11:55:00.752Z,21.73
2019-02-06T12:00:03.380Z,21.37
2019-02-06T12:05:05.382Z,20.10
2019-02-06T12:10:11.144Z,18.75
2019-02-06T12:15:15.082Z,18.77
2019-02-06T12:20:18.619Z,16.37
2019-02-06T12:25:20.318Z,16.12
2019-02-06T12:30:27.570Z,16.52
2019-02-06T12:35:29.434Z,17.92
2019-02-06T12:40:31.377Z,15.30
2019-02-06T12:45:33.140Z,15.63
2019-02-06T12:50:35.043Z,17.05
2019-02-06T12:55:38.129Z,15.72
2019-02-06T13:00:41.311Z,13.80
2019-02-06T13:05:43.035Z,13.28
2019-02-06T13:10:44.728Z,13.68
2019-02-06T13:15:47.480Z,12.18
2019-02-06T13:20:51.347Z,12.30
2019-02-06T13:25:52.687Z,10.78
2019-02-06T13:30:54.283Z,12.33
2019-02-06T13:35:55.993Z,11.88
2019-02-06T13:40:57.678Z,11.95
2019-02-06T13:45:59.359Z,13.03
2019-02-06T13:51:01.095Z,11.78
2019-02-06T13:56:03.390Z,13.40
2019-02-06T14:01:05.190Z,12.00
2019-02-06T14:06:06.877Z,11.90
2019-02-06T14:11:08.591Z,12.97
2019-02-06T14:16:10.294Z,13.13
2019-02-06T14:21:12.027Z,13.23
2019-02-06T14:26:24.269Z,11.57
2019-02-06T14:31:59.716Z,12.83
2019-02-06T14:37:36.284Z,14.00
2019-02-06T14:43:09.780Z,12.00
2019-02-06T14:48:22.904Z,11.73
2019-02-06T14:53:38.286Z,13.23
2019-02-06T14:59:10.054Z,11.07
2019-02-06T15:04:32.428Z,12.67
2019-02-06T15:10:03.975Z,10.77
2019-02-06T15:15:43.844Z,11.00
2019-02-06T15:21:39.431Z,10.53
2019-02-06T15:27:22.588Z,11.53
2019-02-06T15:32:51.377Z,9.93
2019-02-06T15:38:38.280Z,10.73
2019-02-06T15:44:20.716Z,10.13
2019-02-06T15:49:41.331Z,10.07
2019-02-06T15:55:37.241Z,10.07
2019-02-06T16:01:04.129Z,9.80
2019-02-06T16:06:38.280Z,10.20
2019-02-06T16:11:46.067Z,11.10
2019-02-06T16:17:24.544Z,13.07
2019-02-06T16:22:53.647Z,11.73
2019-02-06T16:28:18.419Z,8.33
2019-02-06T16:34:03.605Z,11.90
2019-02-06T16:39:58.055Z,11.97
2019-02-06T16:45:44.272Z,9.30
2019-02-06T16:51:05.800Z,11.03
2019-02-06T16:56:37.503Z,11.17
2019-02-06T17:02:39.778Z,10.10
2019-02-06T17:08:25.399Z,9.60
2019-02-06T17:13:58.083Z,12.70
2019-02-06T17:19:56.673Z,9.97
2019-02-06T17:25:16.621Z,11.43
2019-02-06T17:30:57.595Z,11.87
2019-02-06T17:36:40.509Z,10.13
2019-02-06T17:42:15.376Z,9.87
2019-02-06T17:47:47.893Z,13.27
2019-02-06T17:53:23.459Z,11.27
2019-02-06T17:58:27.091Z,9.97
2019-02-06T18:03:35.487Z,11.87
2019-02-06T18:08:38.168Z,15.00
2019-02-06T18:13:39.970Z,10.60
2019-02-06T18:18:42.037Z,12.07
2019-02-06T18:23:43.636Z,13.27
2019-02-06T18:28:45.442Z,11.67
2019-02-06T18:33:47.452Z,12.13
2019-02-06T18:38:50.586Z,11.93
2019-02-06T18:43:52.652Z,10.53
2019-02-06T18:48:54.399Z,12.53
2019-02-06T18:53:56.332Z,13.43
2019-02-06T18:58:59.650Z,10.73
2019-02-06T19:04:05.130Z,10.60
2019-02-06T19:09:12.911Z,10.90
2019-02-06T19:14:14.906Z,12.23
2019-02-06T19:19:25.124Z,10.30
2019-02-06T19:24:22.198Z,10.57
2019-02-06T19:29:26.089Z,15.07
2019-02-06T19:34:29.221Z,12.03
2019-02-06T19:39:33.444Z,12.57
2019-02-06T19:44:38.344Z,14.00
2019-02-06T19:49:42.921Z,8.40
2019-02-06T19:54:46.390Z,10.73
2019-02-06T19:59:49.731Z,11.17
2019-02-06T20:04:53.170Z,12.13
2019-02-06T20:09:55.521Z,10.57
2019-02-06T20:14:58.649Z,12.63
2019-02-06T20:20:01.566Z,11.40
2019-02-06T20:25:05.506Z,12.70
2019-02-06T20:30:17.546Z,11.17
2019-02-06T20:35:22.486Z,10.53
2019-02-06T20:40:28.599Z,12.30
2019-02-06T20:45:33.491Z,11.67
2019-02-06T20:50:37.764Z,31.53
2019-02-06T20:55:40.592Z,10.83
2019-02-06T21:00:43.994Z,11.37
2019-02-06T21:05:47.726Z,14.87
2019-02-06T21:10:51.558Z,12.43
2019-02-06T21:15:54.517Z,10.17
2019-02-06T21:20:56.803Z,13.93
2019-02-06T21:25:58.658Z,11.37
2019-02-06T21:31:00.623Z,13.33
2019-02-06T21:36:02.364Z,11.57
2019-02-06T21:41:04.075Z,14.40
2019-02-06T21:46:05.692Z,10.30
2019-02-06T21:51:07.379Z,11.70
2019-02-06T21:56:08.966Z,8.57
2019-02-06T22:01:10.886Z,13.43
2019-02-06T22:06:12.592Z,9.30
2019-02-06T22:11:14.318Z,9.40
2019-02-06T22:16:15.939Z,10.63
2019-02-06T22:21:17.638Z,8.77
2019-02-06T22:26:19.334Z,12.30
2019-02-06T22:31:21.012Z,11.27
2019-02-06T22:36:22.628Z,8.13
2019-02-06T22:41:24.493Z,9.53
2019-02-06T22:46:26.095Z,8.00
2019-02-06T22:51:27.772Z,8.40
2019-02-06T22:56:29.485Z,7.70
2019-02-06T23:01:52.079Z,7.73
2019-02-06T23:06:53.766Z,8.60
2019-02-06T23:11:55.475Z,10.30
2019-02-06T23:16:57.585Z,10.20
2019-02-06T23:21:59.373Z,7.40
2019-02-06T23:27:00.990Z,6.00
2019-02-06T23:32:02.630Z,7.57
2019-02-06T23:37:04.549Z,8.90
2019-02-06T23:42:06.254Z,6.23
2019-02-06T23:47:07.924Z,6.00
2019-02-06T23:52:09.587Z,7.50
2019-02-06T23:57:11.389Z,8.70
